• Join FlightAware (Why Join?)
  • Login
  • US Flag 
03:56AM EST


 

Airport Tracker/Info


-or-


 

Live Flight TrackerFlight Track Log ✈ N354LQ ✈ 02-Feb-2014 ✈ KADS - KICT

Flight Track Log - Related Links

Times and Time Zones

All times are in EST time to prevent confusion due to time zone crossing. See the N354LQ flight status page for this flight to view local times or setup timezone preferences in your user account.

Time Position Orientation Groundspeed Altitude Reporting Facility
EST Latitude Longitude Course Direction KTS MPH feet Rate Location/Type
10:38AM 32.9833 -96.8333 337° Northwest 194 223 1,000  Level Dallas / Fort Worth TRACON
10:39AM 33.0167 -96.8500 337° Northwest 248 285 2,000 2,160 Climbing Dallas / Fort Worth TRACON
10:41AM 33.1158 -96.9186 330° Northwest 247 284 6,400 2,580 Climbing Fort Worth Center
10:42AM 33.2042 -96.9642 337° Northwest 277 319 9,600 3,120 Climbing Fort Worth Center
10:43AM 33.2792 -97.0081 334° Northwest 298 343 12,800 3,180 Climbing Fort Worth Center
10:44AM 33.3678 -97.0297 348° North 325 374 16,100 2,880 Climbing Fort Worth Center
10:45AM 33.4644 -97.0050 12° North 352 405 18,700 2,700 Climbing Fort Worth Center
10:46AM 33.5650 -96.9844 10° North 364 419 21,700 2,580 Climbing Fort Worth Center
10:47AM 33.6583 -96.9872 359° North 361 415 24,000 2,040 Climbing Fort Worth Center
10:48AM 33.7642 -96.9942 357° North 379 436 26,000 1,920 Climbing Fort Worth Center
10:49AM 33.8742 -97.0014 357° North 395 455 28,000 1,740 Climbing Fort Worth Center
10:50AM 33.9914 -97.0050 359° North 418 481 29,600 960 Climbing Fort Worth Center
10:51AM 34.1272 -97.0094 358° North 447 514 30,000 420 Climbing Fort Worth Center
10:52AM 34.2603 -97.0111 359° North 474 545 30,500 540 Climbing Fort Worth Center
10:53AM 34.3950 -97.0100 360° North 482 555 31,100 660 Climbing Fort Worth Center
10:54AM 34.5306 -97.0192 357° North 486 559 31,900 420 Climbing Fort Worth Center
10:55AM 34.6967 -97.0231 359° North 497 572 32,000  Climbing Fort Worth Center
10:56AM 34.8369 -97.0306 357° North 500 575 32,000  Level Fort Worth Center
10:57AM 34.9814 -97.0331 359° North 515 593 32,000  Level Fort Worth Center
10:58AM 35.1222 -97.0344 360° North 513 590 32,000  Level Fort Worth Center
10:59AM 35.2617 -97.0397 358° North 508 585 32,000  Level Fort Worth Center
11:00AM 35.4003 -97.0425 359° North 506 582 32,000  Level Fort Worth Center
11:01AM 35.5403 -97.0453 359° North 512 589 32,000  Level Fort Worth Center
11:02AM 35.6806 -97.0497 359° North 512 589 32,000  Level Kansas City Center
11:03AM 35.8236 -97.0531 359° North 516 594 32,000  Level Kansas City Center
11:04AM 35.9661 -97.0600 358° North 515 593 32,000 -60 Level Kansas City Center
11:05AM 36.1100 -97.0608 360° North 517 595 31,900 -1,140 Descending Kansas City Center
11:06AM 36.2503 -97.0672 358° North 512 589 29,700 -2,460 Descending Kansas City Center
11:07AM 36.3917 -97.0722 358° North 509 586 27,000 -2,520 Descending Kansas City Center
11:08AM 36.5292 -97.0750 359° North 501 577 24,600 -2,700 Descending Kansas City Center
11:09AM 36.6839 -97.1072 351° North 471 542 21,500 -2,760 Descending Kansas City Center
11:10AM 36.8033 -97.1572 341° North 456 525 19,000 -1,920 Descending Kansas City Center
11:11AM 36.9042 -97.1808 349° North 436 502 17,600 -1,620 Descending Kansas City Center
11:11AM 36.9275 -97.1914 340° North 405 466 17,200 -2,160 Descending Kansas City Center
11:12AM 37.0131 -97.2250 343° North 368 423 15,700 -1,860 Descending Kansas City Center
11:12AM 37.0233 -97.2294 341° North 380 437 15,500 -1,740 Descending Kansas City Center
11:13AM 37.1083 -97.2547 347° North 346 398 14,000 -1,680 Descending Kansas City Center
11:13AM 37.1192 -97.2572 350° North 360 414 13,800 -1,980 Descending Kansas City Center
11:14AM 37.1933 -97.2836 344° North 314 361 12,000 -2,040 Descending Kansas City Center
11:14AM 37.2033 -97.2872 344° North 337 388 11,700 -2,280 Descending Kansas City Center
11:15AM 37.2722 -97.3161 342° North 293 337 9,700 -2,280 Descending Kansas City Center
11:15AM 37.2828 -97.3183 350° North 311 358 9,400 -2,820 Descending Kansas City Center
11:16AM 37.3492 -97.3514 338° Northwest 287 330 6,900 -2,760 Descending Kansas City Center
11:16AM 37.3586 -97.3544 346° North 300 345 6,600 -2,880 Descending Kansas City Center
11:17AM 37.4219 -97.3850 339° North 278 320 4,000 -2,880 Descending Kansas City Center
11:17AM 37.4300 -97.3875 346° North 288 331 3,700 -780 Descending Kansas City Center
11:18AM 37.4947 -97.4186 339° North 207 238 3,100 -300 Descending Kansas City Center
11:19AM 37.5392 -97.4433 336° Northwest 160 184 3,100  Level Kansas City Center
11:19AM 37.5350 -97.4411 157° South 202 232 3,100 -420 Level Kansas City Center
11:20AM 37.5800 -97.4547 347° North 170 196 2,700 -480 Descending Kansas City Center
11:20AM 37.5822 -97.4553 349° North 133 153 2,600 -660 Descending Kansas City Center
11:21AM 37.6164 -97.4394 20° North 122 140 2,000 -540 Descending Kansas City Center
11:22AM 37.6431 -97.4247 24° Northeast 138 159 1,600 -480 Descending Kansas City Center
11:24AM 37.6333 -97.4167 North  Level FlightAware Approximate
11:31AM 37.6499 -97.4331 North  Level Estimated